METAR and TAF’s


Available data for KLBB from the past 2 hours
LUBBOCK, TX
Metar
KLBB 232153Z 06019G22KT 10SM FEW250 24/01 A3020 RMK AO2 SLP196 T02440011

21:53 UTC

Wind: 60° 19kt

Visibility: 10 SM

Sky: FEW 25000 ft

Temp: 24 deg C / 75.2 deg F

Dewpoint: 1 deg C / 33.8 deg F

Pressure: 30.2 inHg

TAF
KLBB 231842Z 2319/2418 04020KT P6SM SCT250 FM240600 03008KT P6SM FEW250 FM241600 36015KT P6SM FEW250
Available data for KCVN from the past 2 hours
CLOVIS MUNI, NM
Metar
KCVN 232156Z AUTO 06015G20KT 10SM 20/03 A3029 RMK AO2 SLP239 T02000028 $